createdAt,value
2022-10-21T00:00:31.828Z,26.93
2022-10-21T00:02:58.651Z,25.80
2022-10-21T00:05:25.396Z,30.63
2022-10-21T00:07:52.256Z,23.90
2022-10-21T00:10:18.981Z,32.10
2022-10-21T00:12:45.905Z,26.97
2022-10-21T00:15:12.905Z,26.03
2022-10-21T00:17:43.042Z,28.10
2022-10-21T00:20:12.340Z,24.27
2022-10-21T00:22:39.669Z,25.60
2022-10-21T00:25:07.254Z,26.13
2022-10-21T00:27:34.133Z,28.27
2022-10-21T00:30:01.123Z,26.27
2022-10-21T00:32:27.869Z,30.20
2022-10-21T00:34:54.617Z,29.30
2022-10-21T00:37:21.329Z,30.33
2022-10-21T00:39:48.140Z,24.20
2022-10-21T00:42:18.158Z,25.80
2022-10-21T00:45:06.309Z,28.33
2022-10-21T00:47:55.977Z,23.80
2022-10-21T00:50:42.458Z,24.90
2022-10-21T00:53:13.546Z,27.53
2022-10-21T00:55:47.661Z,27.77
2022-10-21T00:58:16.449Z,25.77
2022-10-21T01:00:43.227Z,28.63
2022-10-21T01:03:10.183Z,26.90
2022-10-21T01:05:39.323Z,32.73
2022-10-21T01:08:06.330Z,27.70
2022-10-21T01:10:33.151Z,31.57
2022-10-21T01:13:55.709Z,27.83
2022-10-21T01:16:34.821Z,28.90
2022-10-21T01:19:18.648Z,26.60
2022-10-21T01:21:52.898Z,30.67
2022-10-21T01:24:31.920Z,30.57
2022-10-21T01:27:19.844Z,25.20
2022-10-21T01:30:07.954Z,25.77
2022-10-21T01:32:56.246Z,27.13
2022-10-21T01:35:26.241Z,31.13
2022-10-21T01:38:04.527Z,27.83
2022-10-21T01:40:56.058Z,31.23
2022-10-21T01:43:58.074Z,27.13
2022-10-21T01:46:33.512Z,27.70
2022-10-21T01:49:07.229Z,25.87
2022-10-21T01:51:39.128Z,26.73
2022-10-21T01:54:44.090Z,26.30
2022-10-21T01:57:15.034Z,24.13
2022-10-21T01:59:44.051Z,25.17
2022-10-21T02:02:15.913Z,26.07
2022-10-21T02:04:45.499Z,25.80
2022-10-21T02:07:12.231Z,22.43
2022-10-21T02:09:38.974Z,22.20
2022-10-21T02:12:07.592Z,27.23
2022-10-21T02:14:39.566Z,29.00
2022-10-21T02:17:08.839Z,27.67
2022-10-21T02:19:35.622Z,23.20
2022-10-21T02:22:06.254Z,32.23
2022-10-21T02:24:38.603Z,26.67
2022-10-21T02:27:05.672Z,25.90
2022-10-21T02:29:38.656Z,34.70
2022-10-21T02:32:25.652Z,32.50
2022-10-21T02:35:04.006Z,24.63
2022-10-21T02:38:07.650Z,27.07
2022-10-21T02:40:44.437Z,27.33
2022-10-21T02:43:17.442Z,24.73
2022-10-21T02:45:47.027Z,25.97
2022-10-21T02:48:13.951Z,23.43
2022-10-21T02:50:40.824Z,24.83
2022-10-21T02:53:10.201Z,26.70
2022-10-21T02:55:36.946Z,24.07
2022-10-21T02:58:03.810Z,24.80
2022-10-21T03:00:32.900Z,26.43
2022-10-21T03:03:00.397Z,23.10
2022-10-21T03:05:27.311Z,23.97
2022-10-21T03:07:54.201Z,23.27
2022-10-21T03:10:21.066Z,26.47
2022-10-21T03:12:49.606Z,21.20
2022-10-21T03:15:16.872Z,24.17
2022-10-21T03:17:43.845Z,21.93
2022-10-21T03:20:11.467Z,24.63
2022-10-21T03:22:38.237Z,29.17
2022-10-21T03:25:05.569Z,25.37
2022-10-21T03:27:32.854Z,24.13
2022-10-21T03:29:59.679Z,28.83
2022-10-21T03:32:26.478Z,22.80
2022-10-21T03:34:53.321Z,23.53
2022-10-21T03:37:20.063Z,25.30
2022-10-21T03:39:46.812Z,32.67
2022-10-21T03:42:13.710Z,25.57
2022-10-21T03:44:41.388Z,23.23
2022-10-21T03:47:08.549Z,20.90
2022-10-21T03:52:07.048Z,21.80
2022-10-21T03:54:33.826Z,21.53
2022-10-21T03:57:03.647Z,20.63
2022-10-21T03:59:30.428Z,18.57
2022-10-21T04:01:57.272Z,23.73
2022-10-21T04:04:24.044Z,25.37
2022-10-21T04:06:50.907Z,17.93
2022-10-21T04:09:17.695Z,16.80
2022-10-21T04:11:44.487Z,23.93
2022-10-21T04:14:14.512Z,17.60
2022-10-21T04:16:42.325Z,17.57
2022-10-21T04:19:12.915Z,19.80
2022-10-21T04:21:41.735Z,18.03
2022-10-21T04:24:08.549Z,21.80
2022-10-21T04:26:35.299Z,19.33
2022-10-21T04:29:02.042Z,19.23
2022-10-21T04:31:31.348Z,18.00
2022-10-21T04:33:59.162Z,20.83
2022-10-21T04:36:28.845Z,17.33
2022-10-21T04:38:55.713Z,19.50
2022-10-21T04:41:22.495Z,19.67
2022-10-21T04:43:49.290Z,18.10
2022-10-21T04:46:17.044Z,17.57
2022-10-21T04:48:44.218Z,19.60
2022-10-21T04:51:11.041Z,21.20
2022-10-21T04:53:37.948Z,21.50
2022-10-21T04:56:05.137Z,20.53
2022-10-21T04:58:31.862Z,21.73
2022-10-21T05:00:58.738Z,23.17
2022-10-21T05:03:25.555Z,23.57
2022-10-21T05:05:52.943Z,19.70
2022-10-21T05:08:20.840Z,19.90
2022-10-21T05:10:48.231Z,19.60
2022-10-21T05:13:15.541Z,21.53
2022-10-21T05:15:42.359Z,22.07
2022-10-21T05:18:09.124Z,19.37
2022-10-21T05:20:35.853Z,19.83
2022-10-21T05:23:02.586Z,19.50
2022-10-21T05:25:31.818Z,22.97
2022-10-21T05:28:01.296Z,20.37
2022-10-21T05:30:28.112Z,21.60
2022-10-21T05:32:54.860Z,22.97
2022-10-21T05:35:21.575Z,20.13
2022-10-21T05:37:48.283Z,18.93
2022-10-21T05:40:15.021Z,23.10
2022-10-21T05:42:41.760Z,21.10
2022-10-21T05:45:09.452Z,24.73
2022-10-21T05:47:36.301Z,24.37
2022-10-21T05:50:06.234Z,29.47
2022-10-21T05:52:33.101Z,23.33
2022-10-21T05:54:59.990Z,23.13
2022-10-21T05:57:26.738Z,20.33
2022-10-21T05:59:53.490Z,25.23
2022-10-21T06:02:20.252Z,23.33
2022-10-21T06:04:47.026Z,24.43
2022-10-21T06:07:13.717Z,23.43
2022-10-21T06:09:40.512Z,31.67
2022-10-21T06:12:07.298Z,22.50
2022-10-21T06:14:36.341Z,27.17
2022-10-21T06:17:04.438Z,25.57
2022-10-21T06:19:31.537Z,22.50
2022-10-21T06:21:58.990Z,25.80
2022-10-21T06:24:25.943Z,27.97
2022-10-21T06:26:52.728Z,24.53
2022-10-21T06:29:19.633Z,24.27
2022-10-21T06:31:46.368Z,24.97
2022-10-21T06:34:13.199Z,29.73
2022-10-21T06:36:40.054Z,23.50
2022-10-21T06:39:08.030Z,21.97
2022-10-21T06:41:35.044Z,26.93
2022-10-21T06:44:01.888Z,26.00
2022-10-21T06:46:28.773Z,25.10
2022-10-21T06:48:56.108Z,20.23
2022-10-21T06:51:24.232Z,22.50
2022-10-21T06:53:56.931Z,25.30
2022-10-21T06:56:24.640Z,23.27
2022-10-21T06:58:51.961Z,27.33
2022-10-21T07:01:40.812Z,20.90
2022-10-21T07:04:10.990Z,19.67
2022-10-21T07:06:38.168Z,25.17
2022-10-21T07:09:06.839Z,21.77
2022-10-21T07:11:33.718Z,17.80
2022-10-21T07:14:01.477Z,24.70
2022-10-21T07:16:34.332Z,23.50
2022-10-21T07:19:01.028Z,21.33
2022-10-21T07:21:30.574Z,19.10
2022-10-21T07:23:59.467Z,18.97
2022-10-21T07:26:29.057Z,21.63
2022-10-21T07:28:58.298Z,18.50
2022-10-21T07:31:25.354Z,20.50
2022-10-21T07:33:52.208Z,18.80
2022-10-21T07:36:21.657Z,19.30
2022-10-21T07:38:49.789Z,22.33
2022-10-21T07:41:29.123Z,19.93
2022-10-21T07:43:55.943Z,18.53
2022-10-21T07:46:23.584Z,19.17
2022-10-21T07:48:52.672Z,17.47
2022-10-21T07:51:26.971Z,16.83
2022-10-21T07:53:58.814Z,18.40
2022-10-21T07:56:29.076Z,19.37
2022-10-21T07:58:56.384Z,18.43
2022-10-21T08:01:23.480Z,20.50
2022-10-21T08:03:53.188Z,19.97
2022-10-21T08:06:20.091Z,17.17
2022-10-21T08:08:47.185Z,22.87
2022-10-21T08:11:22.345Z,21.13
2022-10-21T08:13:49.242Z,17.80
2022-10-21T08:16:15.965Z,17.40
2022-10-21T08:18:42.749Z,15.73
2022-10-21T08:21:09.529Z,18.27
2022-10-21T08:23:37.191Z,14.13
2022-10-21T08:26:04.563Z,17.77
2022-10-21T08:28:31.874Z,15.33
2022-10-21T08:31:13.788Z,15.52
2022-10-21T08:33:41.058Z,16.23
2022-10-21T08:36:11.443Z,15.40
2022-10-21T08:38:38.164Z,20.33
2022-10-21T08:41:24.973Z,17.05
2022-10-21T08:43:54.291Z,13.88
2022-10-21T08:46:27.130Z,18.20
2022-10-21T08:49:00.349Z,17.35
2022-10-21T08:51:32.928Z,14.07
2022-10-21T08:54:05.296Z,18.10
2022-10-21T08:56:32.624Z,14.98
2022-10-21T08:58:59.470Z,13.98
2022-10-21T09:01:35.418Z,13.77
2022-10-21T09:04:15.240Z,13.70
2022-10-21T09:06:57.718Z,14.10
2022-10-21T09:09:38.544Z,13.63
2022-10-21T09:12:21.555Z,15.18
2022-10-21T09:15:00.424Z,14.85
2022-10-21T09:17:33.101Z,17.55
2022-10-21T09:20:45.011Z,14.48
2022-10-21T09:23:36.415Z,14.55
2022-10-21T09:26:04.821Z,14.00
2022-10-21T09:28:32.651Z,13.38
2022-10-21T09:31:02.581Z,12.80
2022-10-21T09:33:34.637Z,16.58
2022-10-21T09:36:34.938Z,15.27
2022-10-21T09:39:30.232Z,12.88
2022-10-21T09:42:01.665Z,11.27
2022-10-21T09:44:33.291Z,16.25
2022-10-21T09:47:00.049Z,12.10
2022-10-21T09:50:05.423Z,12.32
2022-10-21T09:52:29.197Z,11.35
2022-10-21T09:54:56.794Z,12.23
2022-10-21T09:57:45.633Z,9.50
2022-10-21T10:00:13.970Z,12.18
2022-10-21T10:02:45.392Z,9.38
2022-10-21T10:05:33.821Z,10.15
2022-10-21T10:08:00.648Z,10.77
2022-10-21T10:10:33.861Z,12.75
2022-10-21T10:13:01.059Z,8.32
2022-10-21T10:15:36.335Z,9.40
2022-10-21T10:18:04.535Z,10.40
2022-10-21T10:20:31.357Z,9.05
2022-10-21T10:23:01.216Z,12.52
2022-10-21T10:25:32.921Z,9.93
2022-10-21T10:28:24.926Z,8.63
2022-10-21T10:30:57.062Z,11.27
2022-10-21T10:33:31.199Z,10.80
2022-10-21T10:35:57.976Z,10.45
2022-10-21T10:38:37.796Z,11.32
2022-10-21T10:41:04.593Z,9.50
2022-10-21T10:43:33.930Z,9.48
2022-10-21T10:46:03.964Z,12.05
2022-10-21T10:48:36.493Z,9.50
2022-10-21T10:51:22.536Z,11.18
2022-10-21T10:54:01.607Z,9.00
2022-10-21T10:56:41.298Z,8.98
2022-10-21T10:59:18.355Z,8.13
2022-10-21T11:02:12.140Z,9.52
2022-10-21T11:05:12.930Z,10.63
2022-10-21T11:07:55.073Z,11.45
2022-10-21T11:10:30.885Z,6.95
2022-10-21T11:13:03.109Z,7.15
2022-10-21T11:15:50.596Z,9.75
2022-10-21T11:18:37.572Z,8.27
2022-10-21T11:21:32.203Z,12.77
2022-10-21T11:24:46.297Z,10.45
2022-10-21T11:27:34.476Z,9.40
2022-10-21T11:30:18.657Z,8.57
2022-10-21T11:33:09.678Z,10.48
2022-10-21T11:36:23.979Z,12.00
2022-10-21T11:39:26.508Z,10.65
2022-10-21T11:42:05.162Z,10.13
2022-10-21T11:44:44.040Z,8.02
2022-10-21T11:47:27.169Z,9.57
2022-10-21T11:50:21.388Z,11.27
2022-10-21T11:53:14.149Z,10.20
2022-10-21T11:55:55.998Z,11.18
2022-10-21T11:58:44.267Z,10.35
2022-10-21T12:01:15.008Z,10.65
2022-10-21T12:04:18.573Z,11.45
2022-10-21T12:07:14.834Z,14.25
2022-10-21T12:09:52.593Z,12.27
2022-10-21T12:12:27.068Z,8.80
2022-10-21T12:14:57.979Z,9.20
2022-10-21T12:17:25.900Z,11.23
2022-10-21T12:20:07.334Z,9.10
2022-10-21T12:22:35.673Z,10.02
2022-10-21T12:25:14.681Z,8.00
2022-10-21T12:27:52.548Z,8.48
2022-10-21T12:30:53.873Z,8.57
2022-10-21T12:33:37.662Z,10.65
2022-10-21T12:36:19.403Z,6.90
2022-10-21T12:38:54.163Z,8.57
2022-10-21T12:41:23.644Z,8.82
2022-10-21T12:44:02.956Z,9.57
2022-10-21T12:46:45.092Z,7.47
2022-10-21T12:49:26.016Z,8.52
2022-10-21T12:51:58.522Z,10.52
2022-10-21T12:54:35.714Z,8.05
2022-10-21T12:57:09.501Z,7.40
2022-10-21T12:59:43.596Z,8.00
2022-10-21T13:02:21.530Z,8.30
2022-10-21T13:04:54.205Z,11.07
2022-10-21T13:07:20.987Z,7.45
2022-10-21T13:09:59.569Z,10.10
2022-10-21T13:12:30.269Z,9.73
2022-10-21T13:14:57.064Z,9.40
2022-10-21T13:17:23.929Z,8.32
2022-10-21T13:20:19.386Z,11.00
2022-10-21T13:22:47.185Z,9.52
2022-10-21T13:25:24.263Z,8.00
2022-10-21T13:28:06.753Z,10.80
2022-10-21T13:30:39.723Z,8.38
2022-10-21T13:33:18.100Z,11.02
2022-10-21T13:35:48.082Z,7.43
2022-10-21T13:38:24.536Z,9.23
2022-10-21T13:40:54.724Z,11.20
2022-10-21T13:43:28.904Z,9.15
2022-10-21T13:46:32.736Z,7.90
2022-10-21T13:49:00.735Z,11.25
2022-10-21T13:51:33.820Z,10.82
2022-10-21T13:54:11.516Z,8.68
2022-10-21T13:56:39.901Z,9.95
2022-10-21T13:59:20.800Z,10.57
2022-10-21T14:01:56.527Z,10.15
2022-10-21T14:04:26.793Z,8.30
2022-10-21T14:07:05.441Z,10.30
2022-10-21T14:09:35.331Z,7.88
2022-10-21T14:12:30.555Z,11.05
2022-10-21T14:15:04.862Z,8.85
2022-10-21T14:17:32.893Z,14.45
2022-10-21T14:20:12.691Z,10.70
2022-10-21T14:22:42.181Z,8.45
2022-10-21T14:25:15.918Z,7.38
2022-10-21T14:27:46.942Z,9.40
2022-10-21T14:30:21.690Z,11.40
2022-10-21T14:32:49.671Z,8.43
2022-10-21T14:35:16.417Z,8.77
2022-10-21T14:37:46.369Z,11.02
2022-10-21T14:40:23.390Z,10.75
2022-10-21T14:42:53.276Z,7.22
2022-10-21T14:45:30.675Z,10.20
2022-10-21T14:48:10.968Z,11.30
2022-10-21T14:50:39.903Z,11.20
2022-10-21T14:53:18.806Z,11.65
2022-10-21T14:55:48.368Z,8.20
2022-10-21T14:58:22.996Z,10.02
2022-10-21T15:01:23.720Z,11.52
2022-10-21T15:03:57.028Z,10.02
2022-10-21T15:06:29.617Z,9.20
2022-10-21T15:08:59.526Z,10.82
2022-10-21T15:11:26.233Z,9.23
2022-10-21T15:13:57.051Z,9.07
2022-10-21T15:16:28.238Z,8.50
2022-10-21T15:18:55.170Z,9.45
2022-10-21T15:21:34.818Z,10.82
2022-10-21T15:24:02.816Z,8.10
2022-10-21T15:26:32.685Z,10.57
2022-10-21T15:28:59.922Z,9.73
2022-10-21T15:31:28.652Z,10.13
2022-10-21T15:33:57.331Z,8.00
2022-10-21T15:36:24.602Z,7.15
2022-10-21T15:38:51.423Z,9.32
2022-10-21T15:41:23.466Z,9.85
2022-10-21T15:43:56.365Z,12.15
2022-10-21T15:46:24.743Z,8.43
2022-10-21T15:48:51.802Z,9.88
2022-10-21T15:51:19.009Z,8.98
2022-10-21T15:53:45.906Z,8.10
2022-10-21T15:56:13.861Z,11.02
2022-10-21T15:58:40.947Z,10.27
2022-10-21T16:01:18.031Z,8.60
2022-10-21T16:03:45.488Z,8.93
2022-10-21T16:06:18.745Z,10.02
2022-10-21T16:08:46.160Z,8.82
2022-10-21T16:11:18.960Z,7.75
2022-10-21T16:13:52.799Z,9.63
2022-10-21T16:16:25.007Z,8.38
2022-10-21T16:18:52.895Z,9.30
2022-10-21T16:21:21.592Z,8.65
2022-10-21T16:23:49.046Z,13.30
2022-10-21T16:26:23.233Z,7.50
2022-10-21T16:28:51.305Z,9.50
2022-10-21T16:31:18.558Z,8.95
2022-10-21T16:33:45.688Z,10.52
2022-10-21T16:36:37.774Z,11.27
2022-10-21T16:39:13.687Z,8.15
2022-10-21T16:41:41.370Z,9.07
2022-10-21T16:44:08.085Z,11.02
2022-10-21T16:46:47.845Z,11.20
2022-10-21T16:49:18.422Z,9.15
2022-10-21T16:51:48.692Z,7.88
2022-10-21T16:54:16.349Z,8.93
2022-10-21T16:56:43.189Z,10.38
2022-10-21T16:59:10.007Z,8.50
2022-10-21T17:01:37.318Z,9.85
2022-10-21T17:04:07.190Z,8.57
2022-10-21T17:06:34.011Z,9.68
2022-10-21T17:09:00.934Z,9.15
2022-10-21T17:11:47.948Z,10.70
2022-10-21T17:14:18.768Z,8.48
2022-10-21T17:16:46.049Z,7.60
2022-10-21T17:19:13.737Z,8.73
2022-10-21T17:21:41.448Z,10.23
2022-10-21T17:24:08.357Z,6.97
2022-10-21T17:26:35.193Z,6.70
2022-10-21T17:29:01.974Z,7.35
2022-10-21T17:31:30.551Z,10.48
2022-10-21T17:33:59.993Z,9.07
2022-10-21T17:36:27.050Z,8.23
2022-10-21T17:38:53.922Z,8.63
2022-10-21T17:41:20.734Z,8.98
2022-10-21T17:43:48.081Z,10.73
2022-10-21T17:46:20.342Z,12.13
2022-10-21T17:48:52.024Z,11.10
2022-10-21T17:51:22.419Z,9.10
2022-10-21T17:53:51.011Z,10.20
2022-10-21T17:56:18.048Z,7.03
2022-10-21T17:58:45.797Z,9.93
2022-10-21T18:01:13.831Z,9.55
2022-10-21T18:03:40.757Z,8.52
2022-10-21T18:06:10.627Z,9.00
2022-10-21T18:08:37.702Z,9.55
2022-10-21T18:11:08.734Z,11.52
2022-10-21T18:13:36.183Z,9.52
2022-10-21T18:16:09.836Z,7.38
2022-10-21T18:18:37.291Z,9.70
2022-10-21T18:21:06.445Z,14.05
2022-10-21T18:23:34.112Z,8.68
2022-10-21T18:26:05.916Z,11.00
2022-10-21T18:28:34.311Z,7.07
2022-10-21T18:31:02.019Z,11.80
2022-10-21T18:33:29.279Z,7.22
2022-10-21T18:35:56.966Z,8.18
2022-10-21T18:38:23.816Z,9.13
2022-10-21T18:40:56.358Z,9.13
2022-10-21T18:43:29.199Z,8.55
2022-10-21T18:45:56.865Z,8.30
2022-10-21T18:48:24.183Z,8.93
2022-10-21T18:50:50.919Z,8.50
2022-10-21T18:53:17.716Z,8.93
2022-10-21T18:55:45.752Z,8.32
2022-10-21T18:58:12.751Z,8.10
2022-10-21T19:00:39.610Z,6.38
2022-10-21T19:03:06.396Z,8.32
2022-10-21T19:05:33.121Z,11.85
2022-10-21T19:07:59.962Z,10.50
2022-10-21T19:10:26.823Z,10.82
2022-10-21T19:12:53.533Z,9.70
2022-10-21T19:15:21.248Z,10.50
2022-10-21T19:17:48.121Z,12.95
2022-10-21T19:20:15.312Z,10.00
2022-10-21T19:22:42.198Z,11.32
2022-10-21T19:25:09.338Z,10.15
2022-10-21T19:27:36.067Z,9.05
2022-10-21T19:30:03.027Z,13.85
2022-10-21T19:32:29.929Z,10.10
2022-10-21T19:34:56.683Z,8.27
2022-10-21T19:37:23.447Z,9.52
2022-10-21T19:39:50.393Z,9.45
2022-10-21T19:42:17.173Z,10.57
2022-10-21T19:44:44.067Z,11.27
2022-10-21T19:47:10.821Z,9.38
2022-10-21T19:49:37.652Z,13.30
2022-10-21T19:52:05.325Z,8.57
2022-10-21T19:54:32.220Z,7.65
2022-10-21T19:56:58.996Z,8.85
2022-10-21T19:59:25.849Z,10.82
2022-10-21T20:01:52.619Z,12.60
2022-10-21T20:04:19.515Z,10.48
2022-10-21T20:06:47.796Z,11.47
2022-10-21T20:09:15.181Z,11.45
2022-10-21T20:11:42.430Z,10.77
2022-10-21T20:14:12.938Z,11.23
2022-10-21T20:16:42.320Z,11.75
2022-10-21T20:19:12.353Z,10.23
2022-10-21T20:21:39.127Z,11.02
2022-10-21T20:24:06.149Z,12.35
2022-10-21T20:26:33.301Z,11.95
2022-10-21T20:29:01.960Z,10.95
2022-10-21T20:31:29.651Z,13.68
2022-10-21T20:33:57.002Z,11.05
2022-10-21T20:36:30.292Z,13.37
2022-10-21T20:38:59.070Z,10.65
2022-10-21T20:41:34.409Z,9.67
2022-10-21T20:44:02.731Z,10.43
2022-10-21T20:46:34.740Z,9.90
2022-10-21T20:49:02.067Z,9.47
2022-10-21T20:51:29.690Z,11.38
2022-10-21T20:54:00.294Z,14.98
2022-10-21T20:56:32.075Z,14.18
2022-10-21T20:58:59.401Z,11.10
2022-10-21T21:01:32.423Z,15.45
2022-10-21T21:04:06.157Z,11.60
2022-10-21T21:06:44.842Z,10.83
2022-10-21T21:12:00.424Z,12.25
2022-10-21T21:14:27.204Z,12.50
2022-10-21T21:16:54.929Z,10.47
2022-10-21T21:19:21.752Z,11.88
2022-10-21T21:21:48.972Z,11.53
2022-10-21T21:24:15.758Z,10.90
2022-10-21T21:26:42.753Z,11.23
2022-10-21T21:29:10.278Z,12.73
2022-10-21T21:31:39.106Z,10.77
2022-10-21T21:34:07.112Z,10.50
2022-10-21T21:36:34.248Z,18.23
2022-10-21T21:39:01.098Z,11.70
2022-10-21T21:41:28.022Z,11.25
2022-10-21T21:43:56.715Z,12.20
2022-10-21T21:46:24.299Z,9.33
2022-10-21T21:49:02.285Z,13.40
2022-10-21T21:51:32.582Z,12.15
2022-10-21T21:54:00.013Z,13.27
2022-10-21T21:56:28.110Z,12.60
2022-10-21T21:58:56.117Z,14.67
2022-10-21T22:01:25.390Z,14.07
2022-10-21T22:03:52.775Z,12.80
2022-10-21T22:06:21.209Z,14.13
2022-10-21T22:08:49.086Z,14.18
2022-10-21T22:11:21.776Z,11.47
2022-10-21T22:13:49.522Z,14.13
2022-10-21T22:16:16.798Z,14.20
2022-10-21T22:18:43.948Z,12.27
2022-10-21T22:21:14.185Z,16.07
2022-10-21T22:23:41.458Z,11.93
2022-10-21T22:26:09.230Z,12.40
2022-10-21T22:28:36.178Z,14.57
2022-10-21T22:31:09.576Z,15.20
2022-10-21T22:33:37.725Z,14.40
2022-10-21T22:36:05.715Z,12.63
2022-10-21T22:38:32.756Z,10.20
2022-10-21T22:41:00.961Z,15.97
2022-10-21T22:43:28.243Z,11.82
2022-10-21T22:46:05.390Z,11.40
2022-10-21T22:48:42.504Z,10.03
2022-10-21T22:51:09.229Z,10.33
2022-10-21T22:53:36.606Z,9.23
2022-10-21T22:56:03.829Z,10.60
2022-10-21T22:58:30.735Z,11.40
2022-10-21T23:00:58.256Z,13.20
2022-10-21T23:03:25.203Z,13.63
2022-10-21T23:05:51.974Z,12.57
2022-10-21T23:08:21.909Z,13.50
2022-10-21T23:10:49.107Z,14.27
2022-10-21T23:13:16.416Z,14.40
2022-10-21T23:15:43.733Z,10.77
2022-10-21T23:18:10.872Z,11.77
2022-10-21T23:20:37.661Z,10.90
2022-10-21T23:23:04.658Z,13.80
2022-10-21T23:25:31.643Z,13.17
2022-10-21T23:27:58.454Z,10.47
2022-10-21T23:30:25.326Z,12.60
2022-10-21T23:32:52.129Z,10.00
2022-10-21T23:35:19.785Z,11.53
2022-10-21T23:37:46.577Z,11.13
2022-10-21T23:40:13.537Z,14.20
2022-10-21T23:42:42.853Z,14.17
2022-10-21T23:45:11.403Z,9.93
2022-10-21T23:47:39.959Z,11.30
2022-10-21T23:50:08.229Z,9.47
2022-10-21T23:52:35.619Z,10.30
2022-10-21T23:55:02.486Z,13.37
2022-10-21T23:57:29.327Z,9.20
2022-10-21T23:59:56.108Z,10.73
